createdAt,value
2022-09-22T00:15:46.792Z,99.90
2022-09-22T00:36:00.222Z,99.90
2022-09-22T00:41:02.858Z,99.90
2022-09-22T00:46:16.210Z,99.90
2022-09-22T00:51:22.399Z,99.90
2022-09-22T00:56:31.785Z,99.90
2022-09-22T01:22:05.191Z,99.90
2022-09-22T01:27:46.674Z,99.90
2022-09-22T01:33:10.517Z,99.90
2022-09-22T01:38:27.202Z,99.90
2022-09-22T01:43:45.154Z,99.90
2022-09-22T01:48:50.324Z,99.90
2022-09-22T01:53:58.766Z,99.90
2022-09-22T01:59:04.907Z,99.90
2022-09-22T02:04:29.616Z,99.90
2022-09-22T02:09:34.830Z,99.90
2022-09-22T02:14:36.655Z,99.90
2022-09-22T02:19:39.990Z,99.90
2022-09-22T02:29:49.659Z,99.90
2022-09-22T02:40:09.629Z,99.90
2022-09-22T02:45:31.166Z,99.90
2022-09-22T02:50:34.254Z,99.90
2022-09-22T03:00:38.136Z,99.90
2022-09-22T03:15:46.765Z,99.90
2022-09-22T03:46:02.406Z,99.90
2022-09-22T03:56:14.493Z,99.90
2022-09-22T06:27:40.000Z,99.90
2022-09-22T06:53:01.369Z,99.90
2022-09-22T07:03:15.245Z,99.90
2022-09-22T07:08:17.004Z,99.90
2022-09-22T07:13:18.847Z,99.90
2022-09-22T07:18:20.536Z,99.90
2022-09-22T07:23:22.211Z,99.90
2022-09-22T07:28:28.811Z,99.90
2022-09-22T07:33:30.483Z,99.90
2022-09-22T07:43:38.642Z,99.90
2022-09-22T07:48:45.661Z,99.90
2022-09-22T07:53:50.729Z,99.90
2022-09-22T07:58:53.841Z,99.90
2022-09-22T08:03:57.138Z,99.90
2022-09-22T08:09:00.205Z,99.90
2022-09-22T08:14:04.731Z,99.90
2022-09-22T08:19:14.788Z,99.90
2022-09-22T08:24:22.278Z,99.90
2022-09-22T08:29:24.794Z,99.90
2022-09-22T08:34:26.547Z,99.90
2022-09-22T08:44:37.368Z,99.90
2022-09-22T08:50:07.770Z,99.90
2022-09-22T08:55:23.116Z,99.90
2022-09-22T09:00:28.667Z,99.90
2022-09-22T09:06:00.365Z,99.90
2022-09-22T09:11:42.033Z,99.90
2022-09-22T09:16:52.982Z,99.90
2022-09-22T09:22:01.426Z,99.90
2022-09-22T09:27:13.421Z,99.90
2022-09-22T09:32:28.166Z,99.90
2022-09-22T09:37:30.970Z,99.90
2022-09-22T09:42:35.447Z,99.90
2022-09-22T09:47:40.439Z,99.90
2022-09-22T09:52:42.297Z,99.90
2022-09-22T09:58:10.949Z,99.90
2022-09-22T10:03:17.474Z,99.90
2022-09-22T10:08:23.525Z,99.90
2022-09-22T10:13:55.158Z,99.90
2022-09-22T10:19:20.344Z,99.90
2022-09-22T10:24:33.376Z,98.60
2022-09-22T10:29:35.473Z,98.00
2022-09-22T10:34:48.897Z,98.50
2022-09-22T10:39:52.670Z,97.90
2022-09-22T10:44:57.838Z,97.70
2022-09-22T10:50:34.885Z,96.20
2022-09-22T10:55:46.169Z,95.50
2022-09-22T11:00:47.900Z,94.40
2022-09-22T11:06:31.842Z,95.80
2022-09-22T11:12:03.086Z,94.90
2022-09-22T11:17:31.194Z,95.70
2022-09-22T11:23:13.242Z,95.00
2022-09-22T11:28:20.835Z,94.80
2022-09-22T11:33:39.623Z,94.50
2022-09-22T11:39:19.059Z,95.50
2022-09-22T11:44:33.230Z,93.30
2022-09-22T11:50:13.823Z,91.40
2022-09-22T11:55:33.992Z,91.50
2022-09-22T12:00:42.547Z,91.70
2022-09-22T12:05:58.535Z,90.80
2022-09-22T12:11:00.844Z,87.10
2022-09-22T12:16:19.693Z,87.90
2022-09-22T12:21:27.648Z,84.50
2022-09-22T12:26:35.111Z,86.90
2022-09-22T12:31:41.720Z,87.70
2022-09-22T12:36:43.528Z,87.50
2022-09-22T12:42:03.173Z,86.40
2022-09-22T12:47:16.472Z,85.30
2022-09-22T12:52:40.542Z,80.10
2022-09-22T12:57:52.849Z,81.80
2022-09-22T13:02:56.522Z,82.20
2022-09-22T13:07:58.276Z,78.60
2022-09-22T13:13:02.965Z,79.60
2022-09-22T13:18:05.158Z,78.60
2022-09-22T13:23:14.053Z,73.30
2022-09-22T13:28:25.948Z,75.40
2022-09-22T13:33:32.537Z,73.50
2022-09-22T13:38:38.180Z,71.80
2022-09-22T13:43:44.413Z,70.50
2022-09-22T13:48:46.237Z,69.20
2022-09-22T13:53:52.043Z,70.00
2022-09-22T13:58:57.380Z,70.20
2022-09-22T14:03:59.507Z,70.30
2022-09-22T14:09:01.632Z,70.20
2022-09-22T14:14:04.353Z,69.00
2022-09-22T14:19:15.813Z,68.70
2022-09-22T14:24:18.389Z,67.30
2022-09-22T14:29:27.359Z,68.30
2022-09-22T14:34:32.624Z,69.50
2022-09-22T14:39:34.574Z,71.50
2022-09-22T14:44:43.870Z,73.70
2022-09-22T14:49:47.569Z,73.50
2022-09-22T14:54:50.111Z,72.50
2022-09-22T15:00:16.589Z,71.30
2022-09-22T15:05:30.292Z,75.90
2022-09-22T15:10:35.156Z,72.70
2022-09-22T15:15:45.586Z,71.50
2022-09-22T15:20:53.045Z,67.70
2022-09-22T15:25:55.729Z,65.70
2022-09-22T15:30:57.734Z,64.70
2022-09-22T15:36:09.998Z,62.00
2022-09-22T15:41:15.679Z,68.20
2022-09-22T15:51:50.139Z,73.40
2022-09-22T15:56:54.850Z,73.40
2022-09-22T16:01:57.217Z,73.70
2022-09-22T16:07:03.905Z,72.70
2022-09-22T16:12:08.576Z,76.70
2022-09-22T16:17:10.289Z,79.90
2022-09-22T16:22:12.383Z,80.80
2022-09-22T16:32:17.069Z,85.10
2022-09-22T16:37:19.370Z,86.60
2022-09-22T16:42:23.709Z,90.30
2022-09-22T16:52:31.911Z,91.30
2022-09-22T16:57:33.761Z,92.20
2022-09-22T17:07:37.649Z,93.70
2022-09-22T17:17:44.684Z,94.90
2022-09-22T17:42:56.008Z,98.90
2022-09-22T17:48:16.484Z,99.30
2022-09-22T17:58:38.966Z,99.90
2022-09-22T18:03:41.436Z,99.90
2022-09-22T18:08:44.440Z,99.90
2022-09-22T18:13:48.272Z,99.90
2022-09-22T18:23:52.133Z,99.90
2022-09-22T18:33:56.156Z,99.90
2022-09-22T18:38:57.791Z,99.90
2022-09-22T18:44:00.000Z,99.90
2022-09-22T18:49:08.606Z,99.90
2022-09-22T18:54:15.291Z,99.90
2022-09-22T18:59:23.973Z,99.90
2022-09-22T19:04:26.886Z,99.90
2022-09-22T19:09:28.562Z,99.90
2022-09-22T19:14:38.850Z,99.90
2022-09-22T19:34:53.633Z,99.90
2022-09-22T19:55:02.289Z,99.90
2022-09-22T20:00:05.062Z,99.90
2022-09-22T20:05:19.532Z,99.90
2022-09-22T20:15:25.727Z,99.90
2022-09-22T20:20:28.800Z,99.90
2022-09-22T20:25:32.568Z,99.90
2022-09-22T20:40:39.109Z,99.90
2022-09-22T20:45:42.834Z,99.90
2022-09-22T20:51:02.884Z,99.90
2022-09-22T20:56:07.868Z,99.90
2022-09-22T21:01:12.233Z,99.90
2022-09-22T21:06:15.844Z,99.90
2022-09-22T21:11:19.503Z,99.90
2022-09-22T21:16:21.350Z,99.90
2022-09-22T21:31:28.212Z,99.90
2022-09-22T21:46:37.170Z,99.90
2022-09-22T21:51:44.279Z,99.90
2022-09-22T21:56:46.559Z,99.90
2022-09-22T22:11:56.610Z,99.90
2022-09-22T22:27:09.859Z,99.90
2022-09-22T22:32:11.657Z,99.90
2022-09-22T22:52:19.552Z,99.90
2022-09-22T22:57:21.246Z,99.90
2022-09-22T23:12:27.206Z,99.90
2022-09-22T23:37:40.654Z,99.90
2022-09-22T23:52:48.078Z,99.90
